North Pole, AK (99705)

7:47 AM AKST on February 06, 2016 (GMT -0900)
Eielson farm road | | Change Station
CLOSE
Current Station
Personal Weather Station
Location: North Pole, AK
Elevation: 550 ft
Nearby Weather Stations

Elev 550 ft 64.67 °N, 147.18 °W | Updated 12 minutes ago

Light Snow
Light Snow
5.9 °F
Feels Like 6 °F
N
0.0
Wind Variable Wind from NW

Today
High -- | Low -- °F
--% Chance of Precip.
Yesterday
High -- | Low -- °F
Precip. -- in
Pressure 29.66 in
Visibility 10.0 miles
Clouds Few 1700 ft
Mostly Cloudy 4200 ft
Overcast 7000 ft
Windchill 6 °F
Dew Point 2 °F
Humidity 84%
Rainfall 0.00 in
Snow Depth Not available.
9:19 AM 4:49 PM
Waning Crescent, 5% visible
SPECI PAFB 061603Z AUTO 00000KT 10SM -SN FEW017 BKN042 OVC070 M13/M15 A2966 RMK AO2 SNB03
Pressure 29.66 in
Visibility 10.0 miles
Clouds Few 1700 ft
Mostly Cloudy 4200 ft
Overcast 7000 ft
Windchill 6 °F
Dew Point 2 °F
Humidity 84%
Rainfall 0.00 in
Snow Depth Not available.
9:19 AM 4:49 PM
Waning Crescent, 5% visible
SPECI PAFB 061603Z AUTO 00000KT 10SM -SN FEW017 BKN042 OVC070 M13/M15 A2966 RMK AO2 SNB03

10-Day Weather Forecast

Almanac

Astronomy

Feb. 06, 2016 Rise Set
Actual Time
Civil Twilight
Nautical Twilight
Astronomical Twilight
Moon
Length of Visible Light
Length of Day
Tomorrow will be .
, % of the Moon is Illuminated

Today's Extremes

State Highs State Lows

Community

WunderPhotos

Upload Photos

1,891,017 photos uploaded!

WunderBlog® & News

Nearby

Air Quality

  Air Quality AQ Index Pollutant
Not available.

Snow Depth

Station Depth Elevation

Earthquake Activity

City Distance Mag. Time & Date
Minimum magnitude displayed is 2.5.

Coastal Water Temperatures

Place Temperature

Stations

Nearby Weather Stations

Station Location Temp. Windchill Dew Point Humidity Wind Precip. Elev Updated Type
                   

Watches & Warnings

There are currently no watches in effect.